sensor_id;sensor_type;location;lat;lon;timestamp;pressure;altitude;pressure_sealevel;temperature;humidity
14383;BME280;7275;50.328;8.720;2023-09-07T00:00:32;100138.81;;;23.31;45.10
14383;BME280;7275;50.328;8.720;2023-09-07T00:02:59;100145.19;;;23.30;44.92
14383;BME280;7275;50.328;8.720;2023-09-07T00:05:27;100136.38;;;23.28;45.29
14383;BME280;7275;50.328;8.720;2023-09-07T00:07:55;100128.66;;;23.23;44.93
14383;BME280;7275;50.328;8.720;2023-09-07T00:10:24;100130.63;;;23.21;45.06
14383;BME280;7275;50.328;8.720;2023-09-07T00:12:52;100132.69;;;23.18;45.44
14383;BME280;7275;50.328;8.720;2023-09-07T00:15:20;100131.00;;;23.17;45.36
14383;BME280;7275;50.328;8.720;2023-09-07T00:17:47;100139.31;;;23.14;45.23
14383;BME280;7275;50.328;8.720;2023-09-07T00:20:15;100127.69;;;23.13;45.20
14383;BME280;7275;50.328;8.720;2023-09-07T00:22:45;100132.38;;;23.11;45.62
14383;BME280;7275;50.328;8.720;2023-09-07T00:25:13;100132.59;;;23.08;45.39
14383;BME280;7275;50.328;8.720;2023-09-07T00:27:42;100131.13;;;23.04;45.86
14383;BME280;7275;50.328;8.720;2023-09-07T00:30:10;100131.38;;;23.01;45.34
14383;BME280;7275;50.328;8.720;2023-09-07T00:32:37;100127.22;;;22.97;45.51
14383;BME280;7275;50.328;8.720;2023-09-07T00:35:06;100132.75;;;22.95;45.48
14383;BME280;7275;50.328;8.720;2023-09-07T00:37:34;100122.09;;;22.94;45.83
14383;BME280;7275;50.328;8.720;2023-09-07T00:40:01;100127.34;;;22.95;45.35
14383;BME280;7275;50.328;8.720;2023-09-07T00:42:30;100120.63;;;22.90;45.88
14383;BME280;7275;50.328;8.720;2023-09-07T00:44:58;100124.44;;;22.87;45.58
14383;BME280;7275;50.328;8.720;2023-09-07T00:47:26;100120.13;;;22.85;46.15
14383;BME280;7275;50.328;8.720;2023-09-07T00:49:54;100119.41;;;22.83;45.80
14383;BME280;7275;50.328;8.720;2023-09-07T00:52:21;100114.00;;;22.83;45.80
14383;BME280;7275;50.328;8.720;2023-09-07T00:54:49;100118.81;;;22.79;45.87
14383;BME280;7275;50.328;8.720;2023-09-07T00:57:17;100121.63;;;22.78;45.74
14383;BME280;7275;50.328;8.720;2023-09-07T00:59:44;100118.44;;;22.73;46.24
14383;BME280;7275;50.328;8.720;2023-09-07T01:02:13;100117.69;;;22.71;46.09
14383;BME280;7275;50.328;8.720;2023-09-07T01:04:41;100118.81;;;22.68;45.96
14383;BME280;7275;50.328;8.720;2023-09-07T01:07:14;100112.69;;;22.66;46.43
14383;BME280;7275;50.328;8.720;2023-09-07T01:09:43;100112.94;;;22.63;46.16
14383;BME280;7275;50.328;8.720;2023-09-07T01:12:14;100109.59;;;22.60;46.57
14383;BME280;7275;50.328;8.720;2023-09-07T01:14:41;100103.44;;;22.58;46.37
14383;BME280;7275;50.328;8.720;2023-09-07T01:17:09;100107.16;;;22.57;46.23
14383;BME280;7275;50.328;8.720;2023-09-07T01:19:39;100100.16;;;22.54;46.17
14383;BME280;7275;50.328;8.720;2023-09-07T01:22:09;100100.53;;;22.50;46.54
14383;BME280;7275;50.328;8.720;2023-09-07T01:24:37;100097.94;;;22.48;46.38
14383;BME280;7275;50.328;8.720;2023-09-07T01:27:06;100092.06;;;22.43;46.46
14383;BME280;7275;50.328;8.720;2023-09-07T01:29:33;100099.03;;;22.35;47.31
14383;BME280;7275;50.328;8.720;2023-09-07T01:32:04;100107.25;;;22.33;46.96
14383;BME280;7275;50.328;8.720;2023-09-07T01:34:32;100090.22;;;22.33;47.17
14383;BME280;7275;50.328;8.720;2023-09-07T01:37:00;100101.34;;;22.28;47.75
14383;BME280;7275;50.328;8.720;2023-09-07T01:39:29;100090.84;;;22.25;47.60
14383;BME280;7275;50.328;8.720;2023-09-07T01:41:56;100086.31;;;22.25;47.19
14383;BME280;7275;50.328;8.720;2023-09-07T01:44:24;100089.47;;;22.31;47.30
14383;BME280;7275;50.328;8.720;2023-09-07T01:46:53;100090.97;;;22.35;47.45
14383;BME280;7275;50.328;8.720;2023-09-07T01:49:20;100098.69;;;22.39;46.92
14383;BME280;7275;50.328;8.720;2023-09-07T01:51:51;100100.28;;;22.42;47.00
14383;BME280;7275;50.328;8.720;2023-09-07T01:54:18;100101.16;;;22.42;46.96
14383;BME280;7275;50.328;8.720;2023-09-07T01:56:47;100104.56;;;22.44;47.10
14383;BME280;7275;50.328;8.720;2023-09-07T01:59:15;100107.00;;;22.47;46.75
14383;BME280;7275;50.328;8.720;2023-09-07T02:01:42;100109.69;;;22.47;46.87
14383;BME280;7275;50.328;8.720;2023-09-07T02:04:10;100104.06;;;22.50;46.77
14383;BME280;7275;50.328;8.720;2023-09-07T02:06:38;100100.53;;;22.50;46.71
14383;BME280;7275;50.328;8.720;2023-09-07T02:09:05;100107.75;;;22.49;46.99
14383;BME280;7275;50.328;8.720;2023-09-07T02:11:34;100096.97;;;22.49;46.91
14383;BME280;7275;50.328;8.720;2023-09-07T02:14:03;100103.34;;;22.48;47.03
14383;BME280;7275;50.328;8.720;2023-09-07T02:16:31;100099.66;;;22.49;47.00
14383;BME280;7275;50.328;8.720;2023-09-07T02:19:03;100098.19;;;22.45;47.08
14383;BME280;7275;50.328;8.720;2023-09-07T02:21:30;100097.31;;;22.45;47.41
14383;BME280;7275;50.328;8.720;2023-09-07T02:23:57;100104.66;;;22.43;47.41
14383;BME280;7275;50.328;8.720;2023-09-07T02:26:25;100100.28;;;22.42;47.38
14383;BME280;7275;50.328;8.720;2023-09-07T02:28:53;100093.78;;;22.44;47.33
14383;BME280;7275;50.328;8.720;2023-09-07T02:31:22;100101.63;;;22.47;47.31
14383;BME280;7275;50.328;8.720;2023-09-07T02:33:50;100097.22;;;22.46;47.23
14383;BME280;7275;50.328;8.720;2023-09-07T02:36:17;100090.22;;;22.44;47.44
14383;BME280;7275;50.328;8.720;2023-09-07T02:38:45;100098.44;;;22.42;47.17
14383;BME280;7275;50.328;8.720;2023-09-07T02:41:13;100088.75;;;22.40;47.18
14383;BME280;7275;50.328;8.720;2023-09-07T02:43:40;100094.03;;;22.41;47.54
14383;BME280;7275;50.328;8.720;2023-09-07T02:46:08;100091.34;;;22.41;47.52
14383;BME280;7275;50.328;8.720;2023-09-07T02:48:37;100095.84;;;22.41;47.35
14383;BME280;7275;50.328;8.720;2023-09-07T02:51:04;100099.53;;;22.40;47.45
14383;BME280;7275;50.328;8.720;2023-09-07T02:53:32;100092.56;;;22.37;47.36
14383;BME280;7275;50.328;8.720;2023-09-07T02:56:00;100087.28;;;22.36;47.45
14383;BME280;7275;50.328;8.720;2023-09-07T02:58:28;100098.56;;;22.30;47.43
14383;BME280;7275;50.328;8.720;2023-09-07T03:00:57;100091.72;;;22.25;47.40
14383;BME280;7275;50.328;8.720;2023-09-07T03:03:24;100094.50;;;22.24;47.69
14383;BME280;7275;50.328;8.720;2023-09-07T03:05:53;100097.44;;;22.21;47.47
14383;BME280;7275;50.328;8.720;2023-09-07T03:08:21;100093.03;;;22.20;47.66
14383;BME280;7275;50.328;8.720;2023-09-07T03:10:49;100097.69;;;22.18;47.36
14383;BME280;7275;50.328;8.720;2023-09-07T03:13:17;100093.38;;;22.15;47.85
14383;BME280;7275;50.328;8.720;2023-09-07T03:15:44;100091.81;;;22.13;47.54
14383;BME280;7275;50.328;8.720;2023-09-07T03:18:12;100087.50;;;22.10;47.51
14383;BME280;7275;50.328;8.720;2023-09-07T03:20:40;100089.34;;;22.10;47.81
14383;BME280;7275;50.328;8.720;2023-09-07T03:23:09;100087.75;;;22.07;47.59
14383;BME280;7275;50.328;8.720;2023-09-07T03:25:36;100083.56;;;22.03;47.54
14383;BME280;7275;50.328;8.720;2023-09-07T03:28:04;100087.34;;;22.01;47.81
14383;BME280;7275;50.328;8.720;2023-09-07T03:30:33;100080.41;;;21.98;47.46
14383;BME280;7275;50.328;8.720;2023-09-07T03:33:00;100089.56;;;21.96;47.67
14383;BME280;7275;50.328;8.720;2023-09-07T03:35:29;100090.66;;;21.93;47.68
14383;BME280;7275;50.328;8.720;2023-09-07T03:37:57;100093.84;;;21.87;47.24
14383;BME280;7275;50.328;8.720;2023-09-07T03:40:25;100100.56;;;21.82;47.51
14383;BME280;7275;50.328;8.720;2023-09-07T03:42:53;100106.25;;;21.77;47.65
14383;BME280;7275;50.328;8.720;2023-09-07T03:45:20;100103.19;;;21.71;47.61
14383;BME280;7275;50.328;8.720;2023-09-07T03:47:48;100098.88;;;21.68;47.72
14383;BME280;7275;50.328;8.720;2023-09-07T03:50:16;100104.50;;;21.65;48.13
14383;BME280;7275;50.328;8.720;2023-09-07T03:52:44;100110.13;;;21.62;47.90
14383;BME280;7275;50.328;8.720;2023-09-07T03:55:11;100103.38;;;21.57;48.15
14383;BME280;7275;50.328;8.720;2023-09-07T03:57:40;100108.03;;;21.55;48.34
14383;BME280;7275;50.328;8.720;2023-09-07T04:00:09;100102.00;;;21.51;48.46
14383;BME280;7275;50.328;8.720;2023-09-07T04:02:36;100108.50;;;21.48;48.30
14383;BME280;7275;50.328;8.720;2023-09-07T04:05:05;100106.75;;;21.47;48.70
14383;BME280;7275;50.328;8.720;2023-09-07T04:07:33;100119.34;;;21.47;48.66
14383;BME280;7275;50.328;8.720;2023-09-07T04:10:00;100111.53;;;21.44;48.58
14383;BME280;7275;50.328;8.720;2023-09-07T04:12:28;100111.59;;;21.42;48.57
14383;BME280;7275;50.328;8.720;2023-09-07T04:14:57;100119.69;;;21.42;48.74
14383;BME280;7275;50.328;8.720;2023-09-07T04:17:24;100125.94;;;21.43;48.61
14383;BME280;7275;50.328;8.720;2023-09-07T04:19:52;100117.97;;;21.41;48.64
14383;BME280;7275;50.328;8.720;2023-09-07T04:22:19;100113.69;;;21.39;48.82
14383;BME280;7275;50.328;8.720;2023-09-07T04:24:47;100118.44;;;21.35;48.96
14383;BME280;7275;50.328;8.720;2023-09-07T04:27:15;100111.47;;;21.33;48.93
14383;BME280;7275;50.328;8.720;2023-09-07T04:29:42;100115.97;;;21.32;48.92
14383;BME280;7275;50.328;8.720;2023-09-07T04:32:11;100116.97;;;21.31;48.93
14383;BME280;7275;50.328;8.720;2023-09-07T04:34:39;100121.47;;;21.31;48.91
14383;BME280;7275;50.328;8.720;2023-09-07T04:37:06;100122.69;;;21.27;49.29
14383;BME280;7275;50.328;8.720;2023-09-07T04:39:37;100120.84;;;21.27;49.13
14383;BME280;7275;50.328;8.720;2023-09-07T04:42:04;100124.50;;;21.26;49.03
14383;BME280;7275;50.328;8.720;2023-09-07T04:44:32;100121.81;;;21.26;49.08
14383;BME280;7275;50.328;8.720;2023-09-07T04:47:00;100121.94;;;21.25;49.18
14383;BME280;7275;50.328;8.720;2023-09-07T04:49:29;100120.19;;;21.24;49.49
14383;BME280;7275;50.328;8.720;2023-09-07T04:51:57;100128.78;;;21.29;49.43
14383;BME280;7275;50.328;8.720;2023-09-07T04:54:24;100132.34;;;21.29;49.43
14383;BME280;7275;50.328;8.720;2023-09-07T04:56:52;100126.09;;;21.29;49.23
14383;BME280;7275;50.328;8.720;2023-09-07T04:59:20;100132.44;;;21.28;49.16
14383;BME280;7275;50.328;8.720;2023-09-07T05:01:47;100139.69;;;21.27;49.42
14383;BME280;7275;50.328;8.720;2023-09-07T05:04:14;100139.69;;;21.27;49.42
14383;BME280;7275;50.328;8.720;2023-09-07T05:06:43;100141.38;;;21.28;49.60
14383;BME280;7275;50.328;8.720;2023-09-07T05:09:11;100145.88;;;21.28;49.26
14383;BME280;7275;50.328;8.720;2023-09-07T05:11:38;100136.00;;;21.28;49.74
14383;BME280;7275;50.328;8.720;2023-09-07T05:14:06;100144.94;;;21.29;49.93
14383;BME280;7275;50.328;8.720;2023-09-07T05:16:33;100142.88;;;21.32;49.69
14383;BME280;7275;50.328;8.720;2023-09-07T05:19:01;100144.47;;;21.35;49.87
14383;BME280;7275;50.328;8.720;2023-09-07T05:21:29;100147.78;;;21.38;49.83
14383;BME280;7275;50.328;8.720;2023-09-07T05:23:58;100151.22;;;21.40;49.73
14383;BME280;7275;50.328;8.720;2023-09-07T05:26:26;100144.88;;;21.41;49.84
14383;BME280;7275;50.328;8.720;2023-09-07T05:28:54;100147.31;;;21.44;50.09
14383;BME280;7275;50.328;8.720;2023-09-07T05:31:22;100149.69;;;21.49;50.16
14383;BME280;7275;50.328;8.720;2023-09-07T05:33:49;100155.47;;;21.56;49.85
14383;BME280;7275;50.328;8.720;2023-09-07T05:36:18;100157.69;;;21.62;50.20
14383;BME280;7275;50.328;8.720;2023-09-07T05:38:45;100160.03;;;21.66;50.23
14383;BME280;7275;50.328;8.720;2023-09-07T05:41:14;100158.47;;;21.75;50.44
14383;BME280;7275;50.328;8.720;2023-09-07T05:43:42;100159.78;;;21.82;50.24
14383;BME280;7275;50.328;8.720;2023-09-07T05:46:09;100159.19;;;21.89;50.37
14383;BME280;7275;50.328;8.720;2023-09-07T05:48:37;100155.66;;;22.00;50.35
14383;BME280;7275;50.328;8.720;2023-09-07T05:51:04;100158.41;;;22.11;50.14
14383;BME280;7275;50.328;8.720;2023-09-07T05:53:32;100156.56;;;22.22;50.00
14383;BME280;7275;50.328;8.720;2023-09-07T05:56:00;100150.22;;;22.35;50.34
14383;BME280;7275;50.328;8.720;2023-09-07T05:58:29;100148.28;;;22.48;49.87
14383;BME280;7275;50.328;8.720;2023-09-07T06:00:57;100152.59;;;22.61;49.84
14383;BME280;7275;50.328;8.720;2023-09-07T06:03:24;100146.00;;;22.76;50.22
14383;BME280;7275;50.328;8.720;2023-09-07T06:05:52;100153.84;;;22.90;49.82
14383;BME280;7275;50.328;8.720;2023-09-07T06:08:19;100151.84;;;23.03;49.76
14383;BME280;7275;50.328;8.720;2023-09-07T06:10:47;100161.53;;;23.17;49.98
14383;BME280;7275;50.328;8.720;2023-09-07T06:13:14;100155.00;;;23.31;49.63
14383;BME280;7275;50.328;8.720;2023-09-07T06:15:44;100154.72;;;23.45;49.57
14383;BME280;7275;50.328;8.720;2023-09-07T06:18:11;100150.03;;;23.58;49.60
14383;BME280;7275;50.328;8.720;2023-09-07T06:20:39;100157.81;;;23.72;49.30
14383;BME280;7275;50.328;8.720;2023-09-07T06:23:07;100155.66;;;23.87;49.27
14383;BME280;7275;50.328;8.720;2023-09-07T06:25:34;100162.63;;;24.00;49.34
14383;BME280;7275;50.328;8.720;2023-09-07T06:28:02;100154.34;;;24.13;49.35
14383;BME280;7275;50.328;8.720;2023-09-07T06:30:30;100155.03;;;24.26;49.13
14383;BME280;7275;50.328;8.720;2023-09-07T06:32:59;100161.19;;;24.37;48.84
14383;BME280;7275;50.328;8.720;2023-09-07T06:35:26;100160.13;;;24.49;48.46
14383;BME280;7275;50.328;8.720;2023-09-07T06:37:54;100161.63;;;24.63;48.61
14383;BME280;7275;50.328;8.720;2023-09-07T06:40:22;100166.97;;;24.74;48.39
14383;BME280;7275;50.328;8.720;2023-09-07T06:42:52;100162.03;;;24.89;48.38
14383;BME280;7275;50.328;8.720;2023-09-07T06:45:20;100161.53;;;25.04;48.12
14383;BME280;7275;50.328;8.720;2023-09-07T06:47:49;100169.16;;;25.20;47.94
14383;BME280;7275;50.328;8.720;2023-09-07T06:50:19;100169.47;;;25.36;47.63
14383;BME280;7275;50.328;8.720;2023-09-07T06:52:47;100173.38;;;25.53;47.32
14383;BME280;7275;50.328;8.720;2023-09-07T06:55:15;100178.53;;;25.65;47.03
14383;BME280;7275;50.328;8.720;2023-09-07T06:57:42;100171.81;;;25.79;46.80
14383;BME280;7275;50.328;8.720;2023-09-07T07:00:11;100166.00;;;25.93;46.22
14383;BME280;7275;50.328;8.720;2023-09-07T07:02:39;100168.25;;;26.07;46.04
14383;BME280;7275;50.328;8.720;2023-09-07T07:05:06;100168.84;;;26.20;45.60
14383;BME280;7275;50.328;8.720;2023-09-07T07:07:36;100169.53;;;26.32;45.36
14383;BME280;7275;50.328;8.720;2023-09-07T07:10:04;100172.81;;;26.45;45.19
14383;BME280;7275;50.328;8.720;2023-09-07T07:12:32;100177.03;;;26.57;44.80
14383;BME280;7275;50.328;8.720;2023-09-07T07:15:01;100173.31;;;26.67;44.21
14383;BME280;7275;50.328;8.720;2023-09-07T07:17:29;100176.00;;;26.77;43.04
14383;BME280;7275;50.328;8.720;2023-09-07T07:19:56;100175.72;;;26.80;43.39
14383;BME280;7275;50.328;8.720;2023-09-07T07:22:24;100168.53;;;26.88;43.19
14383;BME280;7275;50.328;8.720;2023-09-07T07:24:53;100174.25;;;26.95;43.43
14383;BME280;7275;50.328;8.720;2023-09-07T07:27:20;100167.03;;;27.04;43.57
14383;BME280;7275;50.328;8.720;2023-09-07T07:29:48;100168.56;;;27.16;43.52
14383;BME280;7275;50.328;8.720;2023-09-07T07:32:18;100170.22;;;27.26;43.08
14383;BME280;7275;50.328;8.720;2023-09-07T07:34:45;100183.47;;;27.39;42.85
14383;BME280;7275;50.328;8.720;2023-09-07T07:37:13;100176.09;;;27.49;43.11
14383;BME280;7275;50.328;8.720;2023-09-07T07:39:41;100180.31;;;27.61;42.65
14383;BME280;7275;50.328;8.720;2023-09-07T07:42:10;100168.19;;;27.73;42.50
14383;BME280;7275;50.328;8.720;2023-09-07T07:44:38;100168.84;;;27.85;42.30
14383;BME280;7275;50.328;8.720;2023-09-07T07:47:06;100167.88;;;27.94;42.32
14383;BME280;7275;50.328;8.720;2023-09-07T07:49:33;100168.53;;;28.05;41.82
14383;BME280;7275;50.328;8.720;2023-09-07T07:52:03;100167.59;;;28.14;41.29
14383;BME280;7275;50.328;8.720;2023-09-07T07:54:33;100163.41;;;28.20;41.38
14383;BME280;7275;50.328;8.720;2023-09-07T07:57:00;100166.69;;;28.31;41.55
14383;BME280;7275;50.328;8.720;2023-09-07T07:59:29;100167.63;;;28.40;40.83
14383;BME280;7275;50.328;8.720;2023-09-07T08:01:57;100173.13;;;28.48;40.92
14383;BME280;7275;50.328;8.720;2023-09-07T08:04:24;100177.78;;;28.56;40.95
14383;BME280;7275;50.328;8.720;2023-09-07T08:06:52;100175.28;;;28.62;40.11
14383;BME280;7275;50.328;8.720;2023-09-07T08:09:24;100181.63;;;28.71;40.41
14383;BME280;7275;50.328;8.720;2023-09-07T08:11:52;100179.66;;;28.81;40.53
14383;BME280;7275;50.328;8.720;2023-09-07T08:14:19;100183.44;;;28.88;40.64
14383;BME280;7275;50.328;8.720;2023-09-07T08:16:49;100168.69;;;28.98;39.87
14383;BME280;7275;50.328;8.720;2023-09-07T08:19:17;100182.00;;;29.09;39.54
14383;BME280;7275;50.328;8.720;2023-09-07T08:21:45;100174.19;;;29.14;39.88
14383;BME280;7275;50.328;8.720;2023-09-07T08:24:13;100169.53;;;29.25;39.55
14383;BME280;7275;50.328;8.720;2023-09-07T08:26:41;100173.81;;;29.35;39.79
14383;BME280;7275;50.328;8.720;2023-09-07T08:29:09;100174.03;;;29.50;39.77
14383;BME280;7275;50.328;8.720;2023-09-07T08:31:37;100176.44;;;29.69;39.03
14383;BME280;7275;50.328;8.720;2023-09-07T08:34:07;100161.66;;;29.87;39.20
14383;BME280;7275;50.328;8.720;2023-09-07T08:36:37;100163.91;;;30.08;39.06
14383;BME280;7275;50.328;8.720;2023-09-07T08:39:05;100171.59;;;30.29;38.38
14383;BME280;7275;50.328;8.720;2023-09-07T08:41:36;100173.81;;;30.49;38.11
14383;BME280;7275;50.328;8.720;2023-09-07T08:44:26;100162.16;;;30.71;38.19
14383;BME280;7275;50.328;8.720;2023-09-07T08:46:54;100168.44;;;30.88;37.54
14383;BME280;7275;50.328;8.720;2023-09-07T08:49:24;100169.25;;;31.05;37.48
14383;BME280;7275;50.328;8.720;2023-09-07T08:51:53;100161.66;;;31.23;37.35
14383;BME280;7275;50.328;8.720;2023-09-07T08:54:22;100159.88;;;31.38;36.99
14383;BME280;7275;50.328;8.720;2023-09-07T08:56:50;100161.50;;;31.55;36.76
14383;BME280;7275;50.328;8.720;2023-09-07T08:59:18;100166.72;;;31.73;36.68
14383;BME280;7275;50.328;8.720;2023-09-07T09:01:45;100168.00;;;31.85;35.68
14383;BME280;7275;50.328;8.720;2023-09-07T09:04:13;100160.22;;;31.96;35.85
14383;BME280;7275;50.328;8.720;2023-09-07T09:06:42;100156.72;;;32.10;35.95
14383;BME280;7275;50.328;8.720;2023-09-07T09:09:10;100155.69;;;32.26;35.67
14383;BME280;7275;50.328;8.720;2023-09-07T09:11:49;100157.25;;;32.43;35.82
14383;BME280;7275;50.328;8.720;2023-09-07T09:14:17;100155.59;;;32.57;34.96
14383;BME280;7275;50.328;8.720;2023-09-07T09:16:48;100155.81;;;32.70;34.72
14383;BME280;7275;50.328;8.720;2023-09-07T09:19:17;100158.19;;;32.87;34.95
14383;BME280;7275;50.328;8.720;2023-09-07T09:21:46;100153.75;;;33.01;33.69
14383;BME280;7275;50.328;8.720;2023-09-07T09:24:16;100154.31;;;33.11;34.24
14383;BME280;7275;50.328;8.720;2023-09-07T09:26:44;100161.50;;;33.27;33.67
14383;BME280;7275;50.328;8.720;2023-09-07T09:29:12;100157.88;;;33.41;34.19
14383;BME280;7275;50.328;8.720;2023-09-07T09:31:41;100155.13;;;33.55;33.08
14383;BME280;7275;50.328;8.720;2023-09-07T09:34:09;100145.09;;;33.62;32.58
14383;BME280;7275;50.328;8.720;2023-09-07T09:36:36;100143.72;;;33.73;32.61
14383;BME280;7275;50.328;8.720;2023-09-07T09:39:08;100133.47;;;33.81;32.76
14383;BME280;7275;50.328;8.720;2023-09-07T09:41:37;100131.47;;;33.97;32.53
14383;BME280;7275;50.328;8.720;2023-09-07T09:44:06;100137.59;;;34.13;32.51
14383;BME280;7275;50.328;8.720;2023-09-07T09:46:35;100132.28;;;34.33;32.59
14383;BME280;7275;50.328;8.720;2023-09-07T09:49:04;100129.25;;;34.49;31.73
14383;BME280;7275;50.328;8.720;2023-09-07T09:51:32;100120.47;;;34.60;32.09
14383;BME280;7275;50.328;8.720;2023-09-07T09:54:00;100127.09;;;34.72;31.78
14383;BME280;7275;50.328;8.720;2023-09-07T09:56:30;100122.47;;;34.79;31.38
14383;BME280;7275;50.328;8.720;2023-09-07T09:58:57;100117.84;;;34.86;31.71
14383;BME280;7275;50.328;8.720;2023-09-07T10:01:25;100122.78;;;34.97;31.68
14383;BME280;7275;50.328;8.720;2023-09-07T10:03:53;100115.88;;;35.08;30.53
14383;BME280;7275;50.328;8.720;2023-09-07T10:06:24;100117.63;;;35.22;30.70
14383;BME280;7275;50.328;8.720;2023-09-07T10:08:58;100118.72;;;35.34;31.38
14383;BME280;7275;50.328;8.720;2023-09-07T10:11:27;100116.91;;;35.48;30.76
14383;BME280;7275;50.328;8.720;2023-09-07T10:13:58;100109.34;;;35.63;30.92
14383;BME280;7275;50.328;8.720;2023-09-07T10:16:26;100107.88;;;35.73;29.89
14383;BME280;7275;50.328;8.720;2023-09-07T10:18:54;100097.72;;;35.80;29.89
14383;BME280;7275;50.328;8.720;2023-09-07T10:21:24;100100.47;;;35.93;29.68
14383;BME280;7275;50.328;8.720;2023-09-07T10:23:53;100106.47;;;36.10;29.13
14383;BME280;7275;50.328;8.720;2023-09-07T10:26:21;100099.47;;;36.21;28.21
14383;BME280;7275;50.328;8.720;2023-09-07T10:29:00;100094.59;;;36.23;28.28
14383;BME280;7275;50.328;8.720;2023-09-07T10:31:30;100093.53;;;36.24;27.88
14383;BME280;7275;50.328;8.720;2023-09-07T10:34:17;100091.19;;;36.34;27.58
14383;BME280;7275;50.328;8.720;2023-09-07T10:36:45;100088.03;;;36.43;28.20
14383;BME280;7275;50.328;8.720;2023-09-07T10:39:13;100096.69;;;36.53;27.48
14383;BME280;7275;50.328;8.720;2023-09-07T10:41:44;100088.81;;;36.63;27.40
14383;BME280;7275;50.328;8.720;2023-09-07T10:44:13;100088.56;;;36.78;27.32
14383;BME280;7275;50.328;8.720;2023-09-07T10:46:41;100091.94;;;36.93;27.35
14383;BME280;7275;50.328;8.720;2023-09-07T10:49:11;100084.69;;;37.05;26.39
14383;BME280;7275;50.328;8.720;2023-09-07T10:51:43;100082.53;;;37.14;26.68
14383;BME280;7275;50.328;8.720;2023-09-07T10:54:15;100075.50;;;37.18;26.60
14383;BME280;7275;50.328;8.720;2023-09-07T10:56:45;100077.41;;;37.24;26.74
14383;BME280;7275;50.328;8.720;2023-09-07T10:59:15;100067.81;;;37.26;25.96
14383;BME280;7275;50.328;8.720;2023-09-07T11:01:44;100072.91;;;37.29;25.16
14383;BME280;7275;50.328;8.720;2023-09-07T11:04:12;100070.56;;;37.33;25.29
14383;BME280;7275;50.328;8.720;2023-09-07T11:06:40;100069.69;;;37.39;26.22
14383;BME280;7275;50.328;8.720;2023-09-07T11:09:09;100071.75;;;37.50;26.23
14383;BME280;7275;50.328;8.720;2023-09-07T11:11:38;100060.84;;;37.61;26.00
14383;BME280;7275;50.328;8.720;2023-09-07T11:14:05;100065.25;;;37.69;25.95
14383;BME280;7275;50.328;8.720;2023-09-07T11:16:34;100066.66;;;37.78;25.49
14383;BME280;7275;50.328;8.720;2023-09-07T11:19:03;100057.94;;;37.88;25.84
14383;BME280;7275;50.328;8.720;2023-09-07T11:21:31;100059.50;;;38.02;25.18
14383;BME280;7275;50.328;8.720;2023-09-07T11:24:00;100061.34;;;38.08;24.44
14383;BME280;7275;50.328;8.720;2023-09-07T11:26:40;100056.75;;;38.02;24.12
14383;BME280;7275;50.328;8.720;2023-09-07T11:29:08;100061.25;;;37.96;24.40
14383;BME280;7275;50.328;8.720;2023-09-07T11:31:37;100061.75;;;37.87;24.08
14383;BME280;7275;50.328;8.720;2023-09-07T11:34:08;100059.88;;;37.81;24.70
14383;BME280;7275;50.328;8.720;2023-09-07T11:36:36;100066.88;;;37.83;25.29
14383;BME280;7275;50.328;8.720;2023-09-07T11:39:04;100058.09;;;37.93;24.88
14383;BME280;7275;50.328;8.720;2023-09-07T11:41:38;100065.50;;;37.99;24.23
14383;BME280;7275;50.328;8.720;2023-09-07T11:44:07;100056.78;;;37.95;23.88
14383;BME280;7275;50.328;8.720;2023-09-07T11:46:35;100057.69;;;37.89;24.00
14383;BME280;7275;50.328;8.720;2023-09-07T11:49:04;100055.44;;;37.80;23.86
14383;BME280;7275;50.328;8.720;2023-09-07T11:51:32;100052.84;;;37.78;24.07
14383;BME280;7275;50.328;8.720;2023-09-07T11:54:01;100053.69;;;37.85;24.49
14383;BME280;7275;50.328;8.720;2023-09-07T11:56:29;100045.81;;;37.89;24.10
14383;BME280;7275;50.328;8.720;2023-09-07T11:58:57;100040.41;;;38.00;24.97
14383;BME280;7275;50.328;8.720;2023-09-07T12:01:25;100042.97;;;38.20;24.62
14383;BME280;7275;50.328;8.720;2023-09-07T12:03:53;100039.66;;;38.36;24.35
14383;BME280;7275;50.328;8.720;2023-09-07T12:06:23;100042.97;;;38.45;23.39
14383;BME280;7275;50.328;8.720;2023-09-07T12:09:00;100037.44;;;38.45;23.02
14383;BME280;7275;50.328;8.720;2023-09-07T12:11:29;100029.91;;;38.52;22.79
14383;BME280;7275;50.328;8.720;2023-09-07T12:13:57;100025.84;;;38.54;23.30
14383;BME280;7275;50.328;8.720;2023-09-07T12:16:26;100024.06;;;38.60;23.40
14383;BME280;7275;50.328;8.720;2023-09-07T12:18:54;100032.13;;;38.68;23.24
14383;BME280;7275;50.328;8.720;2023-09-07T12:21:23;100027.09;;;38.76;22.45
14383;BME280;7275;50.328;8.720;2023-09-07T12:23:50;100033.25;;;38.78;22.43
14383;BME280;7275;50.328;8.720;2023-09-07T12:26:18;100029.41;;;38.79;22.32
14383;BME280;7275;50.328;8.720;2023-09-07T12:28:47;100020.13;;;38.74;22.04
14383;BME280;7275;50.328;8.720;2023-09-07T12:31:15;100024.13;;;38.78;22.45
14383;BME280;7275;50.328;8.720;2023-09-07T12:33:43;100024.25;;;38.83;22.55
14383;BME280;7275;50.328;8.720;2023-09-07T12:36:11;100019.13;;;38.86;22.47
14383;BME280;7275;50.328;8.720;2023-09-07T12:38:41;100021.31;;;38.96;22.58
14383;BME280;7275;50.328;8.720;2023-09-07T12:41:09;100012.25;;;39.07;22.62
14383;BME280;7275;50.328;8.720;2023-09-07T12:43:36;100008.81;;;39.11;21.86
14383;BME280;7275;50.328;8.720;2023-09-07T12:46:04;100017.75;;;39.25;22.24
14383;BME280;7275;50.328;8.720;2023-09-07T12:48:31;100017.16;;;39.35;21.41
14383;BME280;7275;50.328;8.720;2023-09-07T12:50:59;100012.50;;;39.35;21.65
14383;BME280;7275;50.328;8.720;2023-09-07T12:53:27;100009.16;;;39.45;21.82
14383;BME280;7275;50.328;8.720;2023-09-07T12:55:55;100009.66;;;39.53;21.97
14383;BME280;7275;50.328;8.720;2023-09-07T12:58:23;100004.53;;;39.68;22.16
14383;BME280;7275;50.328;8.720;2023-09-07T13:00:51;100001.81;;;39.80;21.68
14383;BME280;7275;50.328;8.720;2023-09-07T13:03:19;100003.25;;;39.82;21.08
14383;BME280;7275;50.328;8.720;2023-09-07T13:05:47;100007.44;;;39.73;20.59